sensor_id;sensor_type;location;lat;lon;timestamp;P1;durP1;ratioP1;P2;durP2;ratioP2
353;SDS011;165;53.592;10.044;2022-08-21T00:00:41;8.93;;;7.10;;
353;SDS011;165;53.592;10.044;2022-08-21T00:03:08;8.97;;;6.20;;
353;SDS011;165;53.592;10.044;2022-08-21T00:05:36;9.63;;;6.53;;
353;SDS011;165;53.592;10.044;2022-08-21T00:08:03;8.00;;;6.47;;
353;SDS011;165;53.592;10.044;2022-08-21T00:10:29;7.60;;;6.67;;
353;SDS011;165;53.592;10.044;2022-08-21T00:12:55;9.10;;;7.00;;
353;SDS011;165;53.592;10.044;2022-08-21T00:15:24;9.63;;;6.83;;
353;SDS011;165;53.592;10.044;2022-08-21T00:17:51;8.03;;;6.20;;
353;SDS011;165;53.592;10.044;2022-08-21T00:20:18;8.30;;;6.80;;
353;SDS011;165;53.592;10.044;2022-08-21T00:22:44;9.00;;;6.70;;
353;SDS011;165;53.592;10.044;2022-08-21T00:25:10;9.07;;;6.50;;
353;SDS011;165;53.592;10.044;2022-08-21T00:27:36;6.93;;;6.40;;
353;SDS011;165;53.592;10.044;2022-08-21T00:30:03;9.83;;;7.30;;
353;SDS011;165;53.592;10.044;2022-08-21T00:32:30;8.10;;;7.80;;
353;SDS011;165;53.592;10.044;2022-08-21T00:34:56;11.70;;;8.43;;
353;SDS011;165;53.592;10.044;2022-08-21T00:37:21;11.10;;;9.00;;
353;SDS011;165;53.592;10.044;2022-08-21T00:39:47;9.67;;;8.40;;
353;SDS011;165;53.592;10.044;2022-08-21T00:42:13;9.07;;;8.57;;
353;SDS011;165;53.592;10.044;2022-08-21T00:44:41;11.13;;;10.53;;
353;SDS011;165;53.592;10.044;2022-08-21T00:47:08;10.03;;;9.50;;
353;SDS011;165;53.592;10.044;2022-08-21T00:49:35;11.20;;;10.20;;
353;SDS011;165;53.592;10.044;2022-08-21T00:52:00;15.23;;;10.33;;
353;SDS011;165;53.592;10.044;2022-08-21T00:54:27;9.33;;;8.90;;
353;SDS011;165;53.592;10.044;2022-08-21T00:56:58;12.30;;;9.50;;
353;SDS011;165;53.592;10.044;2022-08-21T00:59:26;9.70;;;9.20;;
353;SDS011;165;53.592;10.044;2022-08-21T01:01:56;9.43;;;8.90;;
353;SDS011;165;53.592;10.044;2022-08-21T01:04:22;11.80;;;10.47;;
353;SDS011;165;53.592;10.044;2022-08-21T01:06:47;12.70;;;9.83;;
353;SDS011;165;53.592;10.044;2022-08-21T01:09:13;10.73;;;8.90;;
353;SDS011;165;53.592;10.044;2022-08-21T01:11:40;12.13;;;9.07;;
353;SDS011;165;53.592;10.044;2022-08-21T01:14:07;10.50;;;9.80;;
353;SDS011;165;53.592;10.044;2022-08-21T01:16:38;12.90;;;8.50;;
353;SDS011;165;53.592;10.044;2022-08-21T01:19:06;14.83;;;8.80;;
353;SDS011;165;53.592;10.044;2022-08-21T01:21:33;11.00;;;7.90;;
353;SDS011;165;53.592;10.044;2022-08-21T01:23:58;11.13;;;9.13;;
353;SDS011;165;53.592;10.044;2022-08-21T01:26:25;10.07;;;8.10;;
353;SDS011;165;53.592;10.044;2022-08-21T01:31:38;8.87;;;8.00;;
353;SDS011;165;53.592;10.044;2022-08-21T01:34:04;8.70;;;6.80;;
353;SDS011;165;53.592;10.044;2022-08-21T01:36:30;7.37;;;6.80;;
353;SDS011;165;53.592;10.044;2022-08-21T01:38:57;10.30;;;9.40;;
353;SDS011;165;53.592;10.044;2022-08-21T01:41:23;9.03;;;7.97;;
353;SDS011;165;53.592;10.044;2022-08-21T01:43:49;11.50;;;7.30;;
353;SDS011;165;53.592;10.044;2022-08-21T01:46:14;10.43;;;6.33;;
353;SDS011;165;53.592;10.044;2022-08-21T01:48:40;10.00;;;7.10;;
353;SDS011;165;53.592;10.044;2022-08-21T01:51:06;10.27;;;7.27;;
353;SDS011;165;53.592;10.044;2022-08-21T01:53:32;8.43;;;7.07;;
353;SDS011;165;53.592;10.044;2022-08-21T01:56:00;10.50;;;6.80;;
353;SDS011;165;53.592;10.044;2022-08-21T01:58:27;5.87;;;5.57;;
353;SDS011;165;53.592;10.044;2022-08-21T02:00:53;8.33;;;6.80;;
353;SDS011;165;53.592;10.044;2022-08-21T02:03:18;7.43;;;6.23;;
353;SDS011;165;53.592;10.044;2022-08-21T02:05:44;10.17;;;6.70;;
353;SDS011;165;53.592;10.044;2022-08-21T02:08:10;9.47;;;6.47;;
353;SDS011;165;53.592;10.044;2022-08-21T02:10:36;8.73;;;6.47;;
353;SDS011;165;53.592;10.044;2022-08-21T02:13:01;15.40;;;6.93;;
353;SDS011;165;53.592;10.044;2022-08-21T02:15:28;10.13;;;6.40;;
353;SDS011;165;53.592;10.044;2022-08-21T02:17:55;11.67;;;7.50;;
353;SDS011;165;53.592;10.044;2022-08-21T02:20:25;8.53;;;7.00;;
353;SDS011;165;53.592;10.044;2022-08-21T02:22:53;9.37;;;7.27;;
353;SDS011;165;53.592;10.044;2022-08-21T02:25:20;8.23;;;6.57;;
353;SDS011;165;53.592;10.044;2022-08-21T02:27:47;10.37;;;7.67;;
353;SDS011;165;53.592;10.044;2022-08-21T02:30:15;14.33;;;8.10;;
353;SDS011;165;53.592;10.044;2022-08-21T02:32:44;9.83;;;7.97;;
353;SDS011;165;53.592;10.044;2022-08-21T02:35:10;9.07;;;8.53;;
353;SDS011;165;53.592;10.044;2022-08-21T02:38:11;8.57;;;8.07;;
353;SDS011;165;53.592;10.044;2022-08-21T02:40:32;7.77;;;7.37;;
353;SDS011;165;53.592;10.044;2022-08-21T02:43:00;8.90;;;7.57;;
353;SDS011;165;53.592;10.044;2022-08-21T02:45:26;8.77;;;7.43;;
353;SDS011;165;53.592;10.044;2022-08-21T02:47:54;10.07;;;7.90;;
353;SDS011;165;53.592;10.044;2022-08-21T02:50:23;10.80;;;7.70;;
353;SDS011;165;53.592;10.044;2022-08-21T02:52:54;12.73;;;7.53;;
353;SDS011;165;53.592;10.044;2022-08-21T02:55:21;8.70;;;7.67;;
353;SDS011;165;53.592;10.044;2022-08-21T02:57:52;7.63;;;7.23;;
353;SDS011;165;53.592;10.044;2022-08-21T03:00:19;7.90;;;7.10;;
353;SDS011;165;53.592;10.044;2022-08-21T03:02:47;7.80;;;7.37;;
353;SDS011;165;53.592;10.044;2022-08-21T03:05:13;8.40;;;7.10;;
353;SDS011;165;53.592;10.044;2022-08-21T03:07:40;7.37;;;7.03;;
353;SDS011;165;53.592;10.044;2022-08-21T03:10:07;8.63;;;7.40;;
353;SDS011;165;53.592;10.044;2022-08-21T03:12:34;10.03;;;7.90;;
353;SDS011;165;53.592;10.044;2022-08-21T03:15:00;8.00;;;7.03;;
353;SDS011;165;53.592;10.044;2022-08-21T03:17:28;8.67;;;7.07;;
353;SDS011;165;53.592;10.044;2022-08-21T03:19:53;9.10;;;7.23;;
353;SDS011;165;53.592;10.044;2022-08-21T03:22:19;10.63;;;7.83;;
353;SDS011;165;53.592;10.044;2022-08-21T03:24:44;9.00;;;7.40;;
353;SDS011;165;53.592;10.044;2022-08-21T03:27:10;10.63;;;7.93;;
353;SDS011;165;53.592;10.044;2022-08-21T03:29:37;9.53;;;7.03;;
353;SDS011;165;53.592;10.044;2022-08-21T03:32:03;12.53;;;8.97;;
353;SDS011;165;53.592;10.044;2022-08-21T03:34:29;8.67;;;7.20;;
353;SDS011;165;53.592;10.044;2022-08-21T03:36:54;6.87;;;6.50;;
353;SDS011;165;53.592;10.044;2022-08-21T03:39:20;8.80;;;7.10;;
353;SDS011;165;53.592;10.044;2022-08-21T03:41:45;10.20;;;6.57;;
353;SDS011;165;53.592;10.044;2022-08-21T03:44:12;9.13;;;6.90;;
353;SDS011;165;53.592;10.044;2022-08-21T03:46:37;6.57;;;6.17;;
353;SDS011;165;53.592;10.044;2022-08-21T03:49:04;7.53;;;6.10;;
353;SDS011;165;53.592;10.044;2022-08-21T03:51:30;6.90;;;6.00;;
353;SDS011;165;53.592;10.044;2022-08-21T03:53:58;9.23;;;6.33;;
353;SDS011;165;53.592;10.044;2022-08-21T03:56:24;10.30;;;6.37;;
353;SDS011;165;53.592;10.044;2022-08-21T03:58:49;7.77;;;6.77;;
353;SDS011;165;53.592;10.044;2022-08-21T04:01:15;9.43;;;6.50;;
353;SDS011;165;53.592;10.044;2022-08-21T04:03:40;7.20;;;6.80;;
353;SDS011;165;53.592;10.044;2022-08-21T04:06:06;8.00;;;6.70;;
353;SDS011;165;53.592;10.044;2022-08-21T04:08:32;9.60;;;6.20;;
353;SDS011;165;53.592;10.044;2022-08-21T04:10:58;8.63;;;8.10;;
353;SDS011;165;53.592;10.044;2022-08-21T04:13:24;6.60;;;6.20;;
353;SDS011;165;53.592;10.044;2022-08-21T04:15:52;7.50;;;7.10;;
353;SDS011;165;53.592;10.044;2022-08-21T04:18:18;8.63;;;6.20;;
353;SDS011;165;53.592;10.044;2022-08-21T04:20:45;7.17;;;6.10;;
353;SDS011;165;53.592;10.044;2022-08-21T04:23:12;9.53;;;6.83;;
353;SDS011;165;53.592;10.044;2022-08-21T04:25:38;6.70;;;6.00;;
353;SDS011;165;53.592;10.044;2022-08-21T04:28:04;12.07;;;6.60;;
353;SDS011;165;53.592;10.044;2022-08-21T04:30:29;8.40;;;6.60;;
353;SDS011;165;53.592;10.044;2022-08-21T04:32:55;7.93;;;6.20;;
353;SDS011;165;53.592;10.044;2022-08-21T04:35:23;7.63;;;6.73;;
353;SDS011;165;53.592;10.044;2022-08-21T04:37:50;6.73;;;6.40;;
353;SDS011;165;53.592;10.044;2022-08-21T04:40:16;7.57;;;6.93;;
353;SDS011;165;53.592;10.044;2022-08-21T04:42:44;8.60;;;7.03;;
353;SDS011;165;53.592;10.044;2022-08-21T04:45:15;6.17;;;5.77;;
353;SDS011;165;53.592;10.044;2022-08-21T04:47:42;7.17;;;6.40;;
353;SDS011;165;53.592;10.044;2022-08-21T04:50:08;8.47;;;6.10;;
353;SDS011;165;53.592;10.044;2022-08-21T04:52:33;7.03;;;6.20;;
353;SDS011;165;53.592;10.044;2022-08-21T04:54:59;6.40;;;5.93;;
353;SDS011;165;53.592;10.044;2022-08-21T04:57:26;7.63;;;5.77;;
353;SDS011;165;53.592;10.044;2022-08-21T04:59:51;7.03;;;6.63;;
353;SDS011;165;53.592;10.044;2022-08-21T05:02:17;8.20;;;5.90;;
353;SDS011;165;53.592;10.044;2022-08-21T05:04:45;7.47;;;6.60;;
353;SDS011;165;53.592;10.044;2022-08-21T05:07:18;8.70;;;5.87;;
353;SDS011;165;53.592;10.044;2022-08-21T05:09:47;7.27;;;5.90;;
353;SDS011;165;53.592;10.044;2022-08-21T05:12:13;5.73;;;5.43;;
353;SDS011;165;53.592;10.044;2022-08-21T05:14:38;6.77;;;5.83;;
353;SDS011;165;53.592;10.044;2022-08-21T05:17:04;5.30;;;5.00;;
353;SDS011;165;53.592;10.044;2022-08-21T05:19:30;5.87;;;5.57;;
353;SDS011;165;53.592;10.044;2022-08-21T05:21:56;9.47;;;6.00;;
353;SDS011;165;53.592;10.044;2022-08-21T05:24:22;5.53;;;5.23;;
353;SDS011;165;53.592;10.044;2022-08-21T05:26:48;9.80;;;5.60;;
353;SDS011;165;53.592;10.044;2022-08-21T05:29:14;6.40;;;4.97;;
353;SDS011;165;53.592;10.044;2022-08-21T05:31:41;6.33;;;4.60;;
353;SDS011;165;53.592;10.044;2022-08-21T05:34:06;5.17;;;4.80;;
353;SDS011;165;53.592;10.044;2022-08-21T05:36:32;4.83;;;4.20;;
353;SDS011;165;53.592;10.044;2022-08-21T05:38:58;4.70;;;4.47;;
353;SDS011;165;53.592;10.044;2022-08-21T05:41:23;6.43;;;4.83;;
353;SDS011;165;53.592;10.044;2022-08-21T05:43:49;6.10;;;4.83;;
353;SDS011;165;53.592;10.044;2022-08-21T05:46:14;7.60;;;6.07;;
353;SDS011;165;53.592;10.044;2022-08-21T05:48:40;7.10;;;4.50;;
353;SDS011;165;53.592;10.044;2022-08-21T05:51:07;6.10;;;4.77;;
353;SDS011;165;53.592;10.044;2022-08-21T05:53:37;5.93;;;4.43;;
353;SDS011;165;53.592;10.044;2022-08-21T05:56:03;6.27;;;3.87;;
353;SDS011;165;53.592;10.044;2022-08-21T05:58:30;7.67;;;4.60;;
353;SDS011;165;53.592;10.044;2022-08-21T06:00:57;5.63;;;4.10;;
353;SDS011;165;53.592;10.044;2022-08-21T06:03:24;8.40;;;4.27;;
353;SDS011;165;53.592;10.044;2022-08-21T06:05:53;4.30;;;3.60;;
353;SDS011;165;53.592;10.044;2022-08-21T06:08:19;4.37;;;3.63;;
353;SDS011;165;53.592;10.044;2022-08-21T06:10:46;5.33;;;4.63;;
353;SDS011;165;53.592;10.044;2022-08-21T06:13:14;5.67;;;4.10;;
353;SDS011;165;53.592;10.044;2022-08-21T06:15:41;6.93;;;4.07;;
353;SDS011;165;53.592;10.044;2022-08-21T06:18:07;4.77;;;4.10;;
353;SDS011;165;53.592;10.044;2022-08-21T06:20:33;7.27;;;4.00;;
353;SDS011;165;53.592;10.044;2022-08-21T06:22:59;5.67;;;3.53;;
353;SDS011;165;53.592;10.044;2022-08-21T06:25:24;6.93;;;3.80;;
353;SDS011;165;53.592;10.044;2022-08-21T06:27:50;4.27;;;2.90;;
353;SDS011;165;53.592;10.044;2022-08-21T06:30:16;3.57;;;3.30;;
353;SDS011;165;53.592;10.044;2022-08-21T06:32:42;5.93;;;3.80;;
353;SDS011;165;53.592;10.044;2022-08-21T06:35:08;3.90;;;3.17;;
353;SDS011;165;53.592;10.044;2022-08-21T06:37:34;3.10;;;2.83;;
353;SDS011;165;53.592;10.044;2022-08-21T06:40:00;5.30;;;3.30;;
353;SDS011;165;53.592;10.044;2022-08-21T06:42:27;6.60;;;2.97;;
353;SDS011;165;53.592;10.044;2022-08-21T06:44:54;6.60;;;3.00;;
353;SDS011;165;53.592;10.044;2022-08-21T06:47:19;6.23;;;2.83;;
353;SDS011;165;53.592;10.044;2022-08-21T06:49:45;3.80;;;2.80;;
353;SDS011;165;53.592;10.044;2022-08-21T06:52:11;4.00;;;2.93;;
353;SDS011;165;53.592;10.044;2022-08-21T06:54:38;4.60;;;2.57;;
353;SDS011;165;53.592;10.044;2022-08-21T06:57:04;2.83;;;2.37;;
353;SDS011;165;53.592;10.044;2022-08-21T06:59:30;4.03;;;2.70;;
353;SDS011;165;53.592;10.044;2022-08-21T07:01:56;3.80;;;2.83;;
353;SDS011;165;53.592;10.044;2022-08-21T07:04:22;4.70;;;2.53;;
353;SDS011;165;53.592;10.044;2022-08-21T07:06:48;7.10;;;3.17;;
353;SDS011;165;53.592;10.044;2022-08-21T07:09:13;3.80;;;2.57;;
353;SDS011;165;53.592;10.044;2022-08-21T07:11:39;3.77;;;2.13;;
353;SDS011;165;53.592;10.044;2022-08-21T07:14:05;4.17;;;2.53;;
353;SDS011;165;53.592;10.044;2022-08-21T07:16:30;4.30;;;2.60;;
353;SDS011;165;53.592;10.044;2022-08-21T07:18:56;2.73;;;1.97;;
353;SDS011;165;53.592;10.044;2022-08-21T07:21:21;2.53;;;2.17;;
353;SDS011;165;53.592;10.044;2022-08-21T07:23:48;4.67;;;2.10;;
353;SDS011;165;53.592;10.044;2022-08-21T07:26:16;2.57;;;2.33;;
353;SDS011;165;53.592;10.044;2022-08-21T07:28:45;4.47;;;2.23;;
353;SDS011;165;53.592;10.044;2022-08-21T07:31:12;3.93;;;2.13;;
353;SDS011;165;53.592;10.044;2022-08-21T07:33:39;4.07;;;2.40;;
353;SDS011;165;53.592;10.044;2022-08-21T07:36:06;5.63;;;2.80;;
353;SDS011;165;53.592;10.044;2022-08-21T07:38:32;3.43;;;1.77;;
353;SDS011;165;53.592;10.044;2022-08-21T07:40:58;3.30;;;2.13;;
353;SDS011;165;53.592;10.044;2022-08-21T07:43:25;3.87;;;2.07;;
353;SDS011;165;53.592;10.044;2022-08-21T07:45:52;3.30;;;2.10;;
353;SDS011;165;53.592;10.044;2022-08-21T07:48:18;4.93;;;2.30;;
353;SDS011;165;53.592;10.044;2022-08-21T07:50:45;4.47;;;2.20;;
353;SDS011;165;53.592;10.044;2022-08-21T07:53:10;2.90;;;2.27;;
353;SDS011;165;53.592;10.044;2022-08-21T07:55:36;3.30;;;2.20;;
353;SDS011;165;53.592;10.044;2022-08-21T07:58:01;2.60;;;1.97;;
353;SDS011;165;53.592;10.044;2022-08-21T08:00:28;3.97;;;2.17;;
353;SDS011;165;53.592;10.044;2022-08-21T08:02:54;3.67;;;2.10;;
353;SDS011;165;53.592;10.044;2022-08-21T08:05:21;3.37;;;2.30;;
353;SDS011;165;53.592;10.044;2022-08-21T08:07:52;3.50;;;1.90;;
353;SDS011;165;53.592;10.044;2022-08-21T08:10:18;4.13;;;1.70;;
353;SDS011;165;53.592;10.044;2022-08-21T08:12:45;5.00;;;2.30;;
353;SDS011;165;53.592;10.044;2022-08-21T08:15:12;5.97;;;2.40;;
353;SDS011;165;53.592;10.044;2022-08-21T08:17:41;4.00;;;2.40;;
353;SDS011;165;53.592;10.044;2022-08-21T08:20:07;3.00;;;2.03;;
353;SDS011;165;53.592;10.044;2022-08-21T08:22:35;3.30;;;2.03;;
353;SDS011;165;53.592;10.044;2022-08-21T08:25:02;2.55;;;1.88;;
353;SDS011;165;53.592;10.044;2022-08-21T08:27:29;6.03;;;2.30;;
353;SDS011;165;53.592;10.044;2022-08-21T08:29:54;4.03;;;1.90;;
353;SDS011;165;53.592;10.044;2022-08-21T08:32:23;6.73;;;2.27;;
353;SDS011;165;53.592;10.044;2022-08-21T08:34:49;3.50;;;2.10;;
353;SDS011;165;53.592;10.044;2022-08-21T08:37:16;2.83;;;2.17;;
353;SDS011;165;53.592;10.044;2022-08-21T08:39:42;3.43;;;2.10;;
353;SDS011;165;53.592;10.044;2022-08-21T08:47:36;6.00;;;3.00;;
353;SDS011;165;53.592;10.044;2022-08-21T08:53:04;3.37;;;2.50;;
353;SDS011;165;53.592;10.044;2022-08-21T08:55:33;4.57;;;2.50;;
353;SDS011;165;53.592;10.044;2022-08-21T08:58:01;5.73;;;3.33;;
353;SDS011;165;53.592;10.044;2022-08-21T09:00:28;5.30;;;2.90;;
353;SDS011;165;53.592;10.044;2022-08-21T09:02:56;3.40;;;2.43;;
353;SDS011;165;53.592;10.044;2022-08-21T09:08:15;5.37;;;2.83;;
353;SDS011;165;53.592;10.044;2022-08-21T09:11:00;3.47;;;2.50;;
353;SDS011;165;53.592;10.044;2022-08-21T09:16:47;3.70;;;2.57;;
353;SDS011;165;53.592;10.044;2022-08-21T09:19:20;4.80;;;1.87;;
353;SDS011;165;53.592;10.044;2022-08-21T09:21:55;6.50;;;3.23;;
353;SDS011;165;53.592;10.044;2022-08-21T09:24:34;7.77;;;3.00;;
353;SDS011;165;53.592;10.044;2022-08-21T09:27:08;3.13;;;2.30;;
353;SDS011;165;53.592;10.044;2022-08-21T09:29:39;4.17;;;2.03;;
353;SDS011;165;53.592;10.044;2022-08-21T09:32:24;4.03;;;1.83;;
353;SDS011;165;53.592;10.044;2022-08-21T09:35:06;4.70;;;2.40;;
353;SDS011;165;53.592;10.044;2022-08-21T09:37:58;4.80;;;2.20;;
353;SDS011;165;53.592;10.044;2022-08-21T09:43:16;4.10;;;2.00;;
353;SDS011;165;53.592;10.044;2022-08-21T09:45:44;4.80;;;2.47;;
353;SDS011;165;53.592;10.044;2022-08-21T09:48:15;6.10;;;2.57;;
353;SDS011;165;53.592;10.044;2022-08-21T09:50:41;4.67;;;2.70;;
353;SDS011;165;53.592;10.044;2022-08-21T09:53:15;7.33;;;3.20;;
353;SDS011;165;53.592;10.044;2022-08-21T09:56:03;4.10;;;2.20;;
353;SDS011;165;53.592;10.044;2022-08-21T09:58:59;6.57;;;2.23;;
353;SDS011;165;53.592;10.044;2022-08-21T10:01:25;6.47;;;2.83;;
353;SDS011;165;53.592;10.044;2022-08-21T10:04:01;4.17;;;3.07;;
353;SDS011;165;53.592;10.044;2022-08-21T10:06:34;4.73;;;2.60;;
353;SDS011;165;53.592;10.044;2022-08-21T10:09:10;4.13;;;2.50;;
353;SDS011;165;53.592;10.044;2022-08-21T10:11:37;6.70;;;2.40;;
353;SDS011;165;53.592;10.044;2022-08-21T10:14:31;5.60;;;3.17;;
353;SDS011;165;53.592;10.044;2022-08-21T10:17:27;8.03;;;2.40;;
353;SDS011;165;53.592;10.044;2022-08-21T10:20:00;6.77;;;2.63;;
353;SDS011;165;53.592;10.044;2022-08-21T10:22:34;6.67;;;2.37;;
353;SDS011;165;53.592;10.044;2022-08-21T10:25:18;3.93;;;2.10;;
353;SDS011;165;53.592;10.044;2022-08-21T10:28:01;4.73;;;2.00;;
353;SDS011;165;53.592;10.044;2022-08-21T10:30:59;5.80;;;2.70;;
353;SDS011;165;53.592;10.044;2022-08-21T10:33:39;7.97;;;3.20;;
353;SDS011;165;53.592;10.044;2022-08-21T10:36:41;4.07;;;2.23;;
353;SDS011;165;53.592;10.044;2022-08-21T10:39:33;6.80;;;2.97;;
353;SDS011;165;53.592;10.044;2022-08-21T10:44:32;19.90;;;17.80;;
353;SDS011;165;53.592;10.044;2022-08-21T10:52:46;4.40;;;2.60;;
353;SDS011;165;53.592;10.044;2022-08-21T10:55:33;4.53;;;2.57;;
353;SDS011;165;53.592;10.044;2022-08-21T10:58:05;5.17;;;2.40;;
353;SDS011;165;53.592;10.044;2022-08-21T11:00:38;3.17;;;2.43;;
353;SDS011;165;53.592;10.044;2022-08-21T11:03:11;3.60;;;3.07;;
353;SDS011;165;53.592;10.044;2022-08-21T11:05:52;5.10;;;3.43;;
353;SDS011;165;53.592;10.044;2022-08-21T11:08:23;3.50;;;2.20;;
353;SDS011;165;53.592;10.044;2022-08-21T11:10:57;6.07;;;2.60;;
353;SDS011;165;53.592;10.044;2022-08-21T11:18:55;4.90;;;2.40;;
353;SDS011;165;53.592;10.044;2022-08-21T11:21:29;3.60;;;1.60;;
353;SDS011;165;53.592;10.044;2022-08-21T11:24:03;7.37;;;3.10;;
353;SDS011;165;53.592;10.044;2022-08-21T11:26:52;3.63;;;2.60;;
353;SDS011;165;53.592;10.044;2022-08-21T11:29:37;5.67;;;2.47;;
353;SDS011;165;53.592;10.044;2022-08-21T11:45:55;4.53;;;3.50;;
353;SDS011;165;53.592;10.044;2022-08-21T11:51:32;4.70;;;2.20;;
353;SDS011;165;53.592;10.044;2022-08-21T11:56:54;4.40;;;2.20;;
353;SDS011;165;53.592;10.044;2022-08-21T11:59:28;4.70;;;2.20;;
353;SDS011;165;53.592;10.044;2022-08-21T12:02:01;4.37;;;2.43;;
353;SDS011;165;53.592;10.044;2022-08-21T12:04:34;3.17;;;1.77;;
353;SDS011;165;53.592;10.044;2022-08-21T12:07:14;3.40;;;2.13;;
353;SDS011;165;53.592;10.044;2022-08-21T12:09:50;3.13;;;2.10;;
353;SDS011;165;53.592;10.044;2022-08-21T12:15:05;3.00;;;1.77;;
353;SDS011;165;53.592;10.044;2022-08-21T12:17:53;4.43;;;2.00;;
353;SDS011;165;53.592;10.044;2022-08-21T12:20:39;3.87;;;1.70;;
353;SDS011;165;53.592;10.044;2022-08-21T12:25:40;3.13;;;1.97;;
353;SDS011;165;53.592;10.044;2022-08-21T12:28:25;2.40;;;1.77;;
353;SDS011;165;53.592;10.044;2022-08-21T12:30:52;6.67;;;5.30;;
353;SDS011;165;53.592;10.044;2022-08-21T12:35:46;4.80;;;2.70;;
353;SDS011;165;53.592;10.044;2022-08-21T12:38:21;6.60;;;3.97;;
353;SDS011;165;53.592;10.044;2022-08-21T12:41:00;3.07;;;2.10;;
353;SDS011;165;53.592;10.044;2022-08-21T12:43:34;3.33;;;2.10;;
353;SDS011;165;53.592;10.044;2022-08-21T12:46:03;4.27;;;2.00;;
353;SDS011;165;53.592;10.044;2022-08-21T12:48:39;6.17;;;4.80;;
353;SDS011;165;53.592;10.044;2022-08-21T12:51:14;4.80;;;2.10;;
353;SDS011;165;53.592;10.044;2022-08-21T12:53:44;2.70;;;2.00;;
353;SDS011;165;53.592;10.044;2022-08-21T12:56:16;2.90;;;2.60;;
353;SDS011;165;53.592;10.044;2022-08-21T12:58:50;3.40;;;3.10;;
353;SDS011;165;53.592;10.044;2022-08-21T13:04:22;6.37;;;2.87;;
353;SDS011;165;53.592;10.044;2022-08-21T13:07:05;3.03;;;2.23;;
353;SDS011;165;53.592;10.044;2022-08-21T13:09:40;40.93;;;33.30;;
353;SDS011;165;53.592;10.044;2022-08-21T13:12:19;26.85;;;25.38;;
353;SDS011;165;53.592;10.044;2022-08-21T13:14:46;40.90;;;37.23;;
353;SDS011;165;53.592;10.044;2022-08-21T13:17:16;8.20;;;5.82;;
353;SDS011;165;53.592;10.044;2022-08-21T13:22:27;29.73;;;24.13;;
353;SDS011;165;53.592;10.044;2022-08-21T13:24:54;6.90;;;4.67;;
353;SDS011;165;53.592;10.044;2022-08-21T13:27:22;29.20;;;24.33;;
353;SDS011;165;53.592;10.044;2022-08-21T13:30:01;155.73;;;121.10;;
353;SDS011;165;53.592;10.044;2022-08-21T13:32:40;292.27;;;226.40;;
353;SDS011;165;53.592;10.044;2022-08-21T13:35:13;130.73;;;102.27;;
353;SDS011;165;53.592;10.044;2022-08-21T13:37:40;22.97;;;16.00;;
353;SDS011;165;53.592;10.044;2022-08-21T13:40:09;18.53;;;14.37;;
353;SDS011;165;53.592;10.044;2022-08-21T13:42:40;50.47;;;41.97;;
353;SDS011;165;53.592;10.044;2022-08-21T13:45:15;8.87;;;6.00;;
353;SDS011;165;53.592;10.044;2022-08-21T13:47:43;4.30;;;3.57;;
353;SDS011;165;53.592;10.044;2022-08-21T13:50:12;5.30;;;3.50;;
353;SDS011;165;53.592;10.044;2022-08-21T13:52:46;8.23;;;7.83;;
353;SDS011;165;53.592;10.044;2022-08-21T13:55:15;10.60;;;6.90;;
353;SDS011;165;53.592;10.044;2022-08-21T13:57:42;11.07;;;10.17;;
353;SDS011;165;53.592;10.044;2022-08-21T14:00:09;9.57;;;8.50;;
353;SDS011;165;53.592;10.044;2022-08-21T14:02:37;5.60;;;5.30;;
353;SDS011;165;53.592;10.044;2022-08-21T14:05:05;23.10;;;18.40;;
353;SDS011;165;53.592;10.044;2022-08-21T14:07:36;4.87;;;3.50;;
353;SDS011;165;53.592;10.044;2022-08-21T14:10:22;3.37;;;2.27;;
353;SDS011;165;53.592;10.044;2022-08-21T14:12:49;7.23;;;6.57;;
353;SDS011;165;53.592;10.044;2022-08-21T14:15:30;5.90;;;3.47;;
353;SDS011;165;53.592;10.044;2022-08-21T14:18:14;6.63;;;4.33;;
353;SDS011;165;53.592;10.044;2022-08-21T14:20:44;3.23;;;1.80;;
353;SDS011;165;53.592;10.044;2022-08-21T14:23:10;4.30;;;3.00;;
353;SDS011;165;53.592;10.044;2022-08-21T14:28:14;4.87;;;3.50;;
353;SDS011;165;53.592;10.044;2022-08-21T14:30:48;4.03;;;3.60;;
353;SDS011;165;53.592;10.044;2022-08-21T14:33:20;11.40;;;10.80;;
353;SDS011;165;53.592;10.044;2022-08-21T14:35:54;6.67;;;3.77;;
353;SDS011;165;53.592;10.044;2022-08-21T14:38:24;3.97;;;2.67;;
353;SDS011;165;53.592;10.044;2022-08-21T14:41:11;2.70;;;2.13;;
353;SDS011;165;53.592;10.044;2022-08-21T14:44:16;5.22;;;2.83;;
353;SDS011;165;53.592;10.044;2022-08-21T14:46:43;4.17;;;2.27;;
353;SDS011;165;53.592;10.044;2022-08-21T14:49:09;3.03;;;2.60;;
353;SDS011;165;53.592;10.044;2022-08-21T14:51:35;3.87;;;2.30;;
353;SDS011;165;53.592;10.044;2022-08-21T14:54:00;3.77;;;2.60;;
353;SDS011;165;53.592;10.044;2022-08-21T14:56:26;4.83;;;3.40;;
353;SDS011;165;53.592;10.044;2022-08-21T14:58:52;3.70;;;2.30;;
353;SDS011;165;53.592;10.044;2022-08-21T15:01:23;3.97;;;2.70;;
353;SDS011;165;53.592;10.044;2022-08-21T15:03:49;4.47;;;2.43;;
353;SDS011;165;53.592;10.044;2022-08-21T15:06:16;5.70;;;2.83;;
353;SDS011;165;53.592;10.044;2022-08-21T15:08:42;4.37;;;3.10;;
353;SDS011;165;53.592;10.044;2022-08-21T15:11:11;8.60;;;5.63;;
353;SDS011;165;53.592;10.044;2022-08-21T15:13:40;3.73;;;3.57;;
353;SDS011;165;53.592;10.044;2022-08-21T15:16:09;4.50;;;2.33;;
353;SDS011;165;53.592;10.044;2022-08-21T15:18:36;3.93;;;2.37;;
353;SDS011;165;53.592;10.044;2022-08-21T15:21:02;2.97;;;1.73;;
353;SDS011;165;53.592;10.044;2022-08-21T15:23:28;4.73;;;3.97;;
353;SDS011;165;53.592;10.044;2022-08-21T15:25:53;8.53;;;8.07;;
353;SDS011;165;53.592;10.044;2022-08-21T15:28:22;3.20;;;2.70;;
353;SDS011;165;53.592;10.044;2022-08-21T15:30:49;3.07;;;1.73;;
353;SDS011;165;53.592;10.044;2022-08-21T15:33:16;5.63;;;4.87;;
353;SDS011;165;53.592;10.044;2022-08-21T15:35:43;4.20;;;2.50;;
353;SDS011;165;53.592;10.044;2022-08-21T15:38:09;6.40;;;2.90;;
353;SDS011;165;53.592;10.044;2022-08-21T15:40:35;4.60;;;3.07;;
353;SDS011;165;53.592;10.044;2022-08-21T15:43:03;4.73;;;3.63;;
353;SDS011;165;53.592;10.044;2022-08-21T15:45:29;2.90;;;1.70;;
353;SDS011;165;53.592;10.044;2022-08-21T15:47:58;4.87;;;1.87;;
353;SDS011;165;53.592;10.044;2022-08-21T15:50:25;3.43;;;1.77;;
353;SDS011;165;53.592;10.044;2022-08-21T15:52:51;10.53;;;7.20;;
353;SDS011;165;53.592;10.044;2022-08-21T15:55:17;5.60;;;4.20;;
353;SDS011;165;53.592;10.044;2022-08-21T15:57:44;4.27;;;2.70;;
353;SDS011;165;53.592;10.044;2022-08-21T16:00:13;6.43;;;2.90;;
353;SDS011;165;53.592;10.044;2022-08-21T16:02:51;5.07;;;1.80;;
353;SDS011;165;53.592;10.044;2022-08-21T16:05:18;4.70;;;2.70;;
353;SDS011;165;53.592;10.044;2022-08-21T16:07:45;4.30;;;2.10;;
353;SDS011;165;53.592;10.044;2022-08-21T16:10:13;3.60;;;2.03;;
353;SDS011;165;53.592;10.044;2022-08-21T16:12:42;6.00;;;3.90;;
353;SDS011;165;53.592;10.044;2022-08-21T16:15:11;2.40;;;1.27;;
353;SDS011;165;53.592;10.044;2022-08-21T16:17:39;4.50;;;1.97;;
353;SDS011;165;53.592;10.044;2022-08-21T16:20:09;5.07;;;2.83;;
353;SDS011;165;53.592;10.044;2022-08-21T16:22:37;3.10;;;2.30;;
353;SDS011;165;53.592;10.044;2022-08-21T16:25:03;4.13;;;2.00;;
353;SDS011;165;53.592;10.044;2022-08-21T16:27:31;6.97;;;2.27;;
353;SDS011;165;53.592;10.044;2022-08-21T16:29:59;4.90;;;1.80;;
353;SDS011;165;53.592;10.044;2022-08-21T16:32:26;4.27;;;2.60;;
353;SDS011;165;53.592;10.044;2022-08-21T16:34:52;3.57;;;2.83;;
353;SDS011;165;53.592;10.044;2022-08-21T16:37:18;2.83;;;2.03;;
353;SDS011;165;53.592;10.044;2022-08-21T16:40:04;4.27;;;2.00;;
353;SDS011;165;53.592;10.044;2022-08-21T16:42:52;3.50;;;2.27;;
353;SDS011;165;53.592;10.044;2022-08-21T16:45:19;8.33;;;4.90;;
353;SDS011;165;53.592;10.044;2022-08-21T16:47:47;7.63;;;3.97;;
353;SDS011;165;53.592;10.044;2022-08-21T16:50:19;4.90;;;2.50;;